createdAt,value
2022-09-11T00:01:29.412Z,98720.22
2022-09-11T00:03:59.752Z,98710.75
2022-09-11T00:06:30.670Z,98709.69
2022-09-11T00:09:01.270Z,98708.69
2022-09-11T00:11:33.005Z,98700.31
2022-09-11T00:14:01.990Z,98707.81
2022-09-11T00:16:34.769Z,98703.34
2022-09-11T00:19:07.480Z,98705.16
2022-09-11T00:21:35.949Z,98705.34
2022-09-11T00:24:03.920Z,98695.88
2022-09-11T00:26:33.076Z,98700.50
2022-09-11T00:29:02.164Z,98693.44
2022-09-11T00:31:31.033Z,98694.19
2022-09-11T00:33:59.349Z,98695.63
2022-09-11T00:36:29.318Z,98693.63
2022-09-11T00:38:57.946Z,98697.09
2022-09-11T00:41:28.446Z,98691.59
2022-09-11T00:44:01.022Z,98695.56
2022-09-11T00:46:41.489Z,98692.59
2022-09-11T00:49:22.322Z,98693.88
2022-09-11T00:51:54.443Z,98689.94
2022-09-11T00:54:29.552Z,98695.44
2022-09-11T00:56:59.924Z,98694.34
2022-09-11T00:59:31.914Z,98695.69
2022-09-11T01:01:59.908Z,98689.69
2022-09-11T01:04:29.242Z,98692.44
2022-09-11T01:06:59.249Z,98696.34
2022-09-11T01:09:30.446Z,98694.88
2022-09-11T01:12:09.201Z,98690.31
2022-09-11T01:14:53.447Z,98691.44
2022-09-11T01:17:27.966Z,98694.59
2022-09-11T01:20:17.856Z,98681.00
2022-09-11T01:23:32.857Z,98688.38
2022-09-11T01:26:18.871Z,98686.34
2022-09-11T01:28:53.515Z,98685.91
2022-09-11T01:31:24.964Z,98688.16
2022-09-11T01:34:00.608Z,98694.41
2022-09-11T01:36:36.638Z,98698.69
2022-09-11T01:39:05.931Z,98690.91
2022-09-11T01:41:40.505Z,98694.34
2022-09-11T01:44:14.019Z,98696.47
2022-09-11T01:46:47.511Z,98696.84
2022-09-11T01:49:19.802Z,98694.78
2022-09-11T01:51:50.583Z,98688.09
2022-09-11T01:54:22.990Z,98689.72
2022-09-11T01:56:55.443Z,98696.19
2022-09-11T01:59:32.937Z,98691.81
2022-09-11T02:02:05.099Z,98698.97
2022-09-11T02:04:40.932Z,98704.72
2022-09-11T02:07:17.137Z,98703.66
2022-09-11T02:09:54.017Z,98700.78
2022-09-11T02:12:27.514Z,98708.22
2022-09-11T02:14:57.143Z,98711.16
2022-09-11T02:17:33.557Z,98701.03
2022-09-11T02:20:02.122Z,98708.84
2022-09-11T02:22:31.088Z,98711.13
2022-09-11T02:25:03.243Z,98716.03
2022-09-11T02:27:33.573Z,98709.00
2022-09-11T02:30:03.197Z,98711.22
2022-09-11T02:32:36.779Z,98717.56
2022-09-11T02:35:05.252Z,98714.66
2022-09-11T02:37:44.344Z,98720.28
2022-09-11T02:40:42.234Z,98715.78
2022-09-11T02:43:47.707Z,98720.13
2022-09-11T02:46:30.973Z,98725.03
2022-09-11T02:49:09.745Z,98725.34
2022-09-11T02:51:46.134Z,98731.72
2022-09-11T02:54:26.887Z,98730.75
2022-09-11T02:57:02.248Z,98732.81
2022-09-11T02:59:34.982Z,98728.88
2022-09-11T03:02:04.664Z,98725.00
2022-09-11T03:04:34.873Z,98724.56
2022-09-11T03:07:04.270Z,98722.13
2022-09-11T03:09:33.639Z,98720.34
2022-09-11T03:12:06.053Z,98723.66
2022-09-11T03:14:38.209Z,98717.88
2022-09-11T03:17:08.396Z,98721.03
2022-09-11T03:19:37.637Z,98732.66
2022-09-11T03:22:07.739Z,98728.91
2022-09-11T03:24:35.787Z,98726.31
2022-09-11T03:27:04.561Z,98727.75
2022-09-11T03:29:33.589Z,98732.94
2022-09-11T03:32:02.300Z,98730.97
2022-09-11T03:34:31.711Z,98725.34
2022-09-11T03:37:00.194Z,98723.03
2022-09-11T03:39:29.108Z,98720.03
2022-09-11T03:42:00.115Z,98726.56
2022-09-11T03:44:28.871Z,98723.09
2022-09-11T03:46:57.222Z,98726.22
2022-09-11T03:49:25.784Z,98725.19
2022-09-11T03:51:54.878Z,98730.34
2022-09-11T03:54:23.075Z,98728.53
2022-09-11T03:56:51.827Z,98733.47
2022-09-11T03:59:19.961Z,98731.09
2022-09-11T04:01:50.102Z,98733.88
2022-09-11T04:04:17.982Z,98735.19
2022-09-11T04:06:46.654Z,98733.59
2022-09-11T04:09:17.133Z,98738.09
2022-09-11T04:11:45.215Z,98743.56
2022-09-11T04:14:22.792Z,98736.75
2022-09-11T04:16:52.519Z,98731.97
2022-09-11T04:19:23.595Z,98739.75
2022-09-11T04:21:51.751Z,98742.03
2022-09-11T04:24:20.885Z,98736.84
2022-09-11T04:26:48.907Z,98744.03
2022-09-11T04:29:24.193Z,98746.22
2022-09-11T04:31:52.966Z,98739.59
2022-09-11T04:34:21.851Z,98745.06
2022-09-11T04:36:50.635Z,98752.78
2022-09-11T04:39:23.030Z,98750.84
2022-09-11T04:41:50.942Z,98756.84
2022-09-11T04:44:20.733Z,98761.63
2022-09-11T04:46:48.634Z,98768.50
2022-09-11T04:49:17.028Z,98775.09
2022-09-11T04:51:47.141Z,98772.16
2022-09-11T04:54:21.075Z,98782.19
2022-09-11T04:56:54.720Z,98778.22
2022-09-11T04:59:24.118Z,98786.84
2022-09-11T05:02:05.602Z,98786.84
2022-09-11T05:04:37.287Z,98784.63
2022-09-11T05:07:05.283Z,98795.28
2022-09-11T05:09:36.192Z,98793.44
2022-09-11T05:12:07.251Z,98797.34
2022-09-11T05:14:37.870Z,98804.94
2022-09-11T05:17:06.074Z,98810.25
2022-09-11T05:19:37.695Z,98803.94
2022-09-11T05:22:08.240Z,98798.75
2022-09-11T05:24:39.400Z,98824.16
2022-09-11T05:27:09.656Z,98816.31
2022-09-11T05:29:39.282Z,98812.13
2022-09-11T05:32:13.141Z,98811.47
2022-09-11T05:34:42.328Z,98820.28
2022-09-11T05:37:13.620Z,98812.66
2022-09-11T05:39:45.359Z,98829.44
2022-09-11T05:42:16.600Z,98827.00
2022-09-11T05:44:49.160Z,98819.13
2022-09-11T05:47:17.600Z,98832.97
2022-09-11T05:49:49.617Z,98830.22
2022-09-11T05:52:17.673Z,98836.97
2022-09-11T05:54:46.096Z,98834.72
2022-09-11T05:57:16.590Z,98838.03
2022-09-11T05:59:44.751Z,98837.50
2022-09-11T06:02:13.205Z,98844.06
2022-09-11T06:04:49.540Z,98848.38
2022-09-11T06:07:19.764Z,98853.50
2022-09-11T06:09:49.752Z,98859.94
2022-09-11T06:12:19.437Z,98863.75
2022-09-11T06:14:49.107Z,98874.41
2022-09-11T06:17:17.357Z,98875.22
2022-09-11T06:19:45.758Z,98871.84
2022-09-11T06:22:13.674Z,98872.63
2022-09-11T06:24:44.499Z,98877.00
2022-09-11T06:27:12.437Z,98878.34
2022-09-11T06:29:45.364Z,98886.69
2022-09-11T06:32:13.582Z,98878.50
2022-09-11T06:34:43.614Z,98892.19
2022-09-11T06:37:14.360Z,98898.25
2022-09-11T06:39:42.503Z,98888.25
2022-09-11T06:42:15.231Z,98893.31
2022-09-11T06:44:44.896Z,98905.63
2022-09-11T06:47:15.772Z,98903.78
2022-09-11T06:49:45.736Z,98902.53
2022-09-11T06:52:34.531Z,98909.00
2022-09-11T06:55:14.476Z,98912.94
2022-09-11T06:57:48.131Z,98909.06
2022-09-11T07:00:20.327Z,98907.66
2022-09-11T07:02:53.006Z,98912.59
2022-09-11T07:05:41.864Z,98906.97
2022-09-11T07:08:22.960Z,98907.47
2022-09-11T07:10:52.620Z,98903.28
2022-09-11T07:13:24.209Z,98909.41
2022-09-11T07:16:01.232Z,98900.13
2022-09-11T07:18:36.272Z,98909.06
2022-09-11T07:21:11.174Z,98907.47
2022-09-11T07:23:41.151Z,98899.00
2022-09-11T07:26:11.779Z,98906.16
2022-09-11T07:28:41.344Z,98907.84
2022-09-11T07:31:12.231Z,98906.91
2022-09-11T07:33:45.751Z,98914.06
2022-09-11T07:36:16.680Z,98913.84
2022-09-11T07:38:46.949Z,98912.88
2022-09-11T07:41:16.840Z,98910.81
2022-09-11T07:43:46.568Z,98926.44
2022-09-11T07:46:15.937Z,98930.09
2022-09-11T07:48:45.864Z,98928.34
2022-09-11T07:51:16.085Z,98931.31
2022-09-11T07:53:46.108Z,98938.94
2022-09-11T07:56:19.839Z,98947.97
2022-09-11T07:58:49.853Z,98935.91
2022-09-11T08:01:19.889Z,98939.78
2022-09-11T08:03:50.252Z,98946.19
2022-09-11T08:06:22.404Z,98941.88
2022-09-11T08:08:55.000Z,98938.88
2022-09-11T08:11:24.496Z,98942.94
2022-09-11T08:13:54.497Z,98943.13
2022-09-11T08:16:26.007Z,98945.97
2022-09-11T08:18:58.077Z,98945.53
2022-09-11T08:21:27.636Z,98952.66
2022-09-11T08:23:55.975Z,98950.19
2022-09-11T08:26:25.836Z,98954.72
2022-09-11T08:28:56.862Z,98951.72
2022-09-11T08:31:27.856Z,98946.75
2022-09-11T08:33:59.604Z,98953.75
2022-09-11T08:36:29.540Z,98962.56
2022-09-11T08:39:00.564Z,98958.22
2022-09-11T08:41:41.942Z,98966.25
2022-09-11T08:44:19.429Z,98969.50
2022-09-11T08:46:51.177Z,98965.22
2022-09-11T08:49:25.916Z,98960.97
2022-09-11T08:51:57.751Z,98959.16
2022-09-11T08:54:29.888Z,98963.81
2022-09-11T08:57:12.536Z,98966.06
2022-09-11T09:00:05.434Z,98967.16
2022-09-11T09:03:02.533Z,98961.94
2022-09-11T09:05:40.968Z,98969.88
2022-09-11T09:08:40.344Z,98970.56
2022-09-11T09:11:20.412Z,98958.59
2022-09-11T09:14:13.111Z,98968.84
2022-09-11T09:16:50.564Z,98956.78
2022-09-11T09:19:25.541Z,98970.88
2022-09-11T09:22:04.457Z,98967.31
2022-09-11T09:24:40.780Z,98972.44
2022-09-11T09:27:16.102Z,98971.50
2022-09-11T09:29:47.743Z,98968.47
2022-09-11T09:32:21.078Z,98967.34
2022-09-11T09:34:52.708Z,98975.19
2022-09-11T09:37:23.437Z,98970.25
2022-09-11T09:39:52.213Z,98975.94
2022-09-11T09:42:35.563Z,98977.63
2022-09-11T09:45:20.233Z,98978.81
2022-09-11T09:47:50.054Z,98980.22
2022-09-11T09:50:20.899Z,98969.94
2022-09-11T09:52:50.935Z,98974.97
2022-09-11T09:55:20.001Z,98972.72
2022-09-11T09:57:48.068Z,98971.09
2022-09-11T10:00:18.100Z,98975.13
2022-09-11T10:02:49.161Z,98972.47
2022-09-11T10:05:20.181Z,98971.97
2022-09-11T10:07:51.554Z,98976.72
2022-09-11T10:10:25.375Z,98968.31
2022-09-11T10:13:03.565Z,98969.47
2022-09-11T10:15:42.189Z,98977.56
2022-09-11T10:18:35.852Z,98971.19
2022-09-11T10:21:17.112Z,98977.25
2022-09-11T10:23:50.232Z,98970.75
2022-09-11T10:26:22.733Z,98981.56
2022-09-11T10:28:50.857Z,98972.38
2022-09-11T10:31:20.599Z,98974.84
2022-09-11T10:33:52.495Z,98971.09
2022-09-11T10:36:24.662Z,98977.75
2022-09-11T10:38:54.322Z,98972.13
2022-09-11T10:41:24.933Z,98966.31
2022-09-11T10:44:00.030Z,98973.44
2022-09-11T10:46:39.549Z,98964.53
2022-09-11T10:49:19.071Z,98966.13
2022-09-11T10:52:01.806Z,98966.09
2022-09-11T10:54:54.327Z,98965.78
2022-09-11T10:57:29.175Z,98957.25
2022-09-11T11:00:05.803Z,98951.81
2022-09-11T11:02:35.170Z,98963.13
2022-09-11T11:05:06.350Z,98957.13
2022-09-11T11:08:08.321Z,98957.03
2022-09-11T11:11:03.858Z,98959.31
2022-09-11T11:13:52.184Z,98954.28
2022-09-11T11:16:29.693Z,98947.78
2022-09-11T11:19:17.206Z,98952.16
2022-09-11T11:21:55.910Z,98948.53
2022-09-11T11:24:37.241Z,98948.66
2022-09-11T11:27:28.382Z,98948.06
2022-09-11T11:30:09.627Z,98949.00
2022-09-11T11:32:59.310Z,98948.53
2022-09-11T11:35:33.782Z,98945.75
2022-09-11T11:38:08.356Z,98948.22
2022-09-11T11:40:42.233Z,98946.00
2022-09-11T11:43:14.113Z,98943.56
2022-09-11T11:45:45.444Z,98940.22
2022-09-11T11:48:20.563Z,98948.66
2022-09-11T11:50:52.909Z,98949.81
2022-09-11T11:53:25.669Z,98956.31
2022-09-11T11:56:04.064Z,98955.16
2022-09-11T11:58:48.347Z,98948.44
2022-09-11T12:01:24.170Z,98966.69
2022-09-11T12:03:56.550Z,98967.91
2022-09-11T12:06:24.326Z,98962.28
2022-09-11T12:08:54.516Z,98951.97
2022-09-11T12:11:30.130Z,98946.91
2022-09-11T12:14:00.336Z,98951.88
2022-09-11T12:16:31.723Z,98952.06
2022-09-11T12:19:13.982Z,98945.91
2022-09-11T12:22:05.829Z,98952.78
2022-09-11T12:25:00.902Z,98944.63
2022-09-11T12:27:51.845Z,98935.41
2022-09-11T12:30:27.920Z,98945.47
2022-09-11T12:33:00.281Z,98942.03
2022-09-11T12:35:34.828Z,98946.97
2022-09-11T12:38:13.150Z,98945.38
2022-09-11T12:40:50.472Z,98957.41
2022-09-11T12:43:47.544Z,98944.03
2022-09-11T12:46:48.619Z,98962.88
2022-09-11T12:49:22.890Z,98959.31
2022-09-11T12:51:56.278Z,98945.00
2022-09-11T12:54:26.612Z,98953.81
2022-09-11T12:57:01.826Z,98951.53
2022-09-11T12:59:38.257Z,98956.00
2022-09-11T13:02:26.469Z,98953.63
2022-09-11T13:04:56.921Z,98958.72
2022-09-11T13:07:31.689Z,98945.13
2022-09-11T13:10:07.969Z,98935.22
2022-09-11T13:12:51.286Z,98945.47
2022-09-11T13:15:43.951Z,98937.81
2022-09-11T13:18:44.143Z,98942.28
2022-09-11T13:21:20.321Z,98940.59
2022-09-11T13:23:51.032Z,98931.13
2022-09-11T13:26:27.268Z,98939.91
2022-09-11T13:28:57.708Z,98939.41
2022-09-11T13:31:33.780Z,98934.66
2022-09-11T13:34:03.938Z,98926.28
2022-09-11T13:36:37.296Z,98932.22
2022-09-11T13:39:05.774Z,98929.81
2022-09-11T13:41:37.811Z,98928.84
2022-09-11T13:44:12.119Z,98935.91
2022-09-11T13:46:50.199Z,98922.91
2022-09-11T13:49:29.767Z,98921.94
2022-09-11T13:52:01.210Z,98917.38
2022-09-11T13:54:32.617Z,98923.75
2022-09-11T13:57:16.525Z,98919.78
2022-09-11T13:59:49.645Z,98926.88
2022-09-11T14:02:37.278Z,98915.69
2022-09-11T14:05:15.325Z,98902.34
2022-09-11T14:07:50.943Z,98897.28
2022-09-11T14:10:24.835Z,98898.56
2022-09-11T14:12:57.786Z,98895.72
2022-09-11T14:15:32.714Z,98899.91
2022-09-11T14:18:03.390Z,98887.84
2022-09-11T14:20:31.256Z,98892.25
2022-09-11T14:23:06.144Z,98882.19
2022-09-11T14:25:34.377Z,98876.53
2022-09-11T14:28:02.437Z,98874.94
2022-09-11T14:30:37.441Z,98879.31
2022-09-11T14:33:16.851Z,98875.28
2022-09-11T14:35:47.108Z,98870.09
2022-09-11T14:38:21.681Z,98872.41
2022-09-11T14:40:56.483Z,98871.66
2022-09-11T14:50:58.811Z,98857.94
2022-09-11T14:53:33.275Z,98860.91
2022-09-11T14:56:04.200Z,98857.59
2022-09-11T14:58:32.348Z,98856.16
2022-09-11T15:01:02.353Z,98857.13
2022-09-11T15:03:31.723Z,98852.41
2022-09-11T15:06:00.437Z,98857.47
2022-09-11T15:08:28.281Z,98849.44
2022-09-11T15:10:57.471Z,98853.69
2022-09-11T15:13:25.373Z,98842.91
2022-09-11T15:15:53.800Z,98842.56
2022-09-11T15:18:21.897Z,98850.13
2022-09-11T15:20:49.657Z,98838.00
2022-09-11T15:23:17.517Z,98836.94
2022-09-11T15:25:45.394Z,98827.09
2022-09-11T15:28:14.675Z,98831.09
2022-09-11T15:30:42.833Z,98839.63
2022-09-11T15:33:12.712Z,98832.88
2022-09-11T15:35:40.731Z,98836.50
2022-09-11T15:38:09.920Z,98828.72
2022-09-11T15:40:37.732Z,98835.59
2022-09-11T15:43:05.531Z,98831.91
2022-09-11T15:45:34.749Z,98828.66
2022-09-11T15:48:04.901Z,98830.47
2022-09-11T15:50:32.689Z,98823.72
2022-09-11T15:53:01.854Z,98813.25
2022-09-11T15:55:30.127Z,98807.94
2022-09-11T15:58:00.794Z,98827.84
2022-09-11T16:00:29.371Z,98828.44
2022-09-11T16:02:58.510Z,98825.22
2022-09-11T16:05:28.786Z,98831.03
2022-09-11T16:07:56.600Z,98825.72
2022-09-11T16:10:24.376Z,98831.16
2022-09-11T16:12:58.506Z,98821.22
2022-09-11T16:15:26.837Z,98829.25
2022-09-11T16:17:54.637Z,98823.94
2022-09-11T16:20:24.931Z,98816.69
2022-09-11T16:22:52.761Z,98819.72
2022-09-11T16:25:20.637Z,98824.03
2022-09-11T16:27:48.478Z,98822.94
2022-09-11T16:30:39.594Z,98822.25
2022-09-11T16:33:04.210Z,98826.94
2022-09-11T16:35:34.090Z,98824.53
2022-09-11T16:38:02.089Z,98833.75
2022-09-11T16:40:29.950Z,98830.97
2022-09-11T16:43:00.190Z,98836.38
2022-09-11T16:45:28.319Z,98829.16
2022-09-11T16:47:57.045Z,98822.41
2022-09-11T16:50:24.882Z,98833.84
2022-09-11T16:52:54.603Z,98833.38
2022-09-11T16:55:22.607Z,98831.88
2022-09-11T16:57:50.428Z,98834.69
2022-09-11T17:00:18.351Z,98831.91
2022-09-11T17:02:48.521Z,98832.63
2022-09-11T17:05:17.508Z,98831.16
2022-09-11T17:07:45.275Z,98830.09
2022-09-11T17:10:14.414Z,98831.84
2022-09-11T17:12:42.254Z,98828.53
2022-09-11T17:15:10.854Z,98819.75
2022-09-11T17:17:38.803Z,98825.19
2022-09-11T17:20:09.340Z,98828.47
2022-09-11T17:22:37.377Z,98828.66
2022-09-11T17:25:05.793Z,98826.13
2022-09-11T17:27:36.264Z,98825.50
2022-09-11T17:30:04.246Z,98818.06
2022-09-11T17:32:31.975Z,98819.50
2022-09-11T17:34:59.799Z,98824.97
2022-09-11T17:37:28.356Z,98825.38
2022-09-11T17:39:57.800Z,98823.38
2022-09-11T17:42:28.640Z,98832.38
2022-09-11T17:44:57.915Z,98826.91
2022-09-11T17:47:31.396Z,98823.41
2022-09-11T17:50:01.443Z,98831.41
2022-09-11T17:52:29.959Z,98834.06
2022-09-11T17:54:57.816Z,98837.38
2022-09-11T17:57:26.433Z,98842.97
2022-09-11T17:59:55.345Z,98844.13
2022-09-11T18:02:25.279Z,98841.31
2022-09-11T18:04:53.188Z,98847.31
2022-09-11T18:07:21.237Z,98843.25
2022-09-11T18:09:52.896Z,98846.56
2022-09-11T18:12:25.695Z,98855.16
2022-09-11T18:14:55.965Z,98848.41
2022-09-11T18:17:25.350Z,98854.13
2022-09-11T18:19:53.398Z,98849.78
2022-09-11T18:22:23.904Z,98855.19
2022-09-11T18:24:52.024Z,98852.47
2022-09-11T18:27:20.075Z,98858.16
2022-09-11T18:29:50.149Z,98850.84
2022-09-11T18:32:19.879Z,98848.81
2022-09-11T18:34:49.622Z,98852.50
2022-09-11T18:37:17.840Z,98860.00
2022-09-11T18:39:46.488Z,98850.53
2022-09-11T18:42:14.328Z,98857.44
2022-09-11T18:44:42.117Z,98860.16
2022-09-11T18:47:09.926Z,98850.84
2022-09-11T18:49:38.261Z,98849.88
2022-09-11T18:52:08.782Z,98850.75
2022-09-11T18:54:37.195Z,98844.75
2022-09-11T18:57:05.234Z,98850.09
2022-09-11T18:59:33.021Z,98851.94
2022-09-11T19:02:01.052Z,98851.47
2022-09-11T19:04:28.968Z,98852.81
2022-09-11T19:06:56.770Z,98861.19
2022-09-11T19:09:26.478Z,98850.13
2022-09-11T19:11:54.747Z,98852.13
2022-09-11T19:14:22.762Z,98859.53
2022-09-11T19:16:53.896Z,98858.16
2022-09-11T19:19:22.009Z,98853.66
2022-09-11T19:21:49.855Z,98853.81
2022-09-11T19:24:17.837Z,98859.16
2022-09-11T19:26:49.031Z,98859.13
2022-09-11T19:29:21.169Z,98864.84
2022-09-11T19:31:52.655Z,98863.19
2022-09-11T19:34:21.028Z,98863.50
2022-09-11T19:36:51.295Z,98859.47
2022-09-11T19:39:21.411Z,98863.84
2022-09-11T19:41:52.927Z,98860.47
2022-09-11T19:44:21.012Z,98857.09
2022-09-11T19:46:49.917Z,98868.53
2022-09-11T19:49:17.865Z,98856.78
2022-09-11T19:51:45.631Z,98865.16
2022-09-11T19:54:15.170Z,98862.66
2022-09-11T19:56:44.321Z,98855.41
2022-09-11T19:59:14.590Z,98858.69
2022-09-11T20:01:42.820Z,98853.53
2022-09-11T20:04:11.375Z,98857.00
2022-09-11T20:06:39.499Z,98855.81
2022-09-11T20:09:29.862Z,98858.84
2022-09-11T20:11:55.291Z,98865.16
2022-09-11T20:14:24.530Z,98867.34
2022-09-11T20:16:52.314Z,98862.94
2022-09-11T20:19:20.580Z,98865.22
2022-09-11T20:21:48.516Z,98866.03
2022-09-11T20:24:16.389Z,98871.44
2022-09-11T20:26:44.195Z,98869.94
2022-09-11T20:29:14.773Z,98874.31
2022-09-11T20:31:48.731Z,98868.75
2022-09-11T20:34:17.787Z,98876.59
2022-09-11T20:36:48.261Z,98872.91
2022-09-11T20:39:16.922Z,98863.88
2022-09-11T20:41:46.045Z,98870.59
2022-09-11T20:44:13.821Z,98869.03
2022-09-11T20:46:43.636Z,98865.81
2022-09-11T20:49:12.212Z,98861.63
2022-09-11T20:51:40.422Z,98870.59
2022-09-11T20:54:08.461Z,98870.22
2022-09-11T20:56:36.404Z,98865.16
2022-09-11T20:59:04.223Z,98859.88
2022-09-11T21:01:33.409Z,98863.59
2022-09-11T21:04:04.403Z,98865.00
2022-09-11T21:06:34.065Z,98859.19
2022-09-11T21:09:05.603Z,98858.09
2022-09-11T21:11:34.623Z,98852.44
2022-09-11T21:14:02.589Z,98852.09
2022-09-11T21:16:30.483Z,98856.72
2022-09-11T21:19:00.635Z,98860.13
2022-09-11T21:21:30.711Z,98859.69
2022-09-11T21:24:03.357Z,98856.31
2022-09-11T21:26:31.922Z,98855.88
2022-09-11T21:29:01.071Z,98859.53
2022-09-11T21:31:30.286Z,98852.41
2022-09-11T21:33:58.495Z,98857.84
2022-09-11T21:36:26.338Z,98856.88
2022-09-11T21:38:55.482Z,98858.63
2022-09-11T21:41:23.258Z,98858.84
2022-09-11T21:43:53.132Z,98861.63
2022-09-11T21:46:21.040Z,98857.19
2022-09-11T21:48:48.913Z,98866.78
2022-09-11T21:51:19.945Z,98862.28
2022-09-11T21:53:49.623Z,98861.75
2022-09-11T21:56:20.750Z,98854.31
2022-09-11T21:58:51.517Z,98856.19
2022-09-11T22:01:22.771Z,98852.00
2022-09-11T22:03:50.842Z,98857.56
2022-09-11T22:06:24.633Z,98851.94
2022-09-11T22:08:53.377Z,98853.97
2022-09-11T22:11:23.060Z,98854.06
2022-09-11T22:13:52.890Z,98867.13
2022-09-11T22:16:21.738Z,98855.00
2022-09-11T22:18:51.838Z,98856.97
2022-09-11T22:21:19.903Z,98857.31
2022-09-11T22:23:47.830Z,98851.44
2022-09-11T22:26:20.246Z,98849.44
2022-09-11T22:28:49.450Z,98856.16
2022-09-11T22:31:19.430Z,98851.13
2022-09-11T22:33:47.508Z,98846.38
2022-09-11T22:36:17.468Z,98849.16
2022-09-11T22:38:45.281Z,98836.47
2022-09-11T22:41:13.929Z,98837.94
2022-09-11T22:43:41.862Z,98849.44
2022-09-11T22:46:12.446Z,98837.72
2022-09-11T22:48:40.257Z,98842.19
2022-09-11T22:51:08.338Z,98845.25
2022-09-11T22:53:39.463Z,98844.69
2022-09-11T22:56:07.728Z,98841.88
2022-09-11T22:58:35.611Z,98850.06
2022-09-11T23:01:03.796Z,98856.44
2022-09-11T23:03:35.489Z,98854.22
2022-09-11T23:06:23.709Z,98848.88
2022-09-11T23:08:52.156Z,98849.03
2022-09-11T23:11:20.691Z,98842.44
2022-09-11T23:13:49.566Z,98839.63
2022-09-11T23:16:20.272Z,98839.09
2022-09-11T23:18:53.261Z,98838.94
2022-09-11T23:21:21.048Z,98839.78
2022-09-11T23:23:54.570Z,98837.97
2022-09-11T23:26:23.609Z,98837.53
2022-09-11T23:28:51.741Z,98837.81
2022-09-11T23:31:24.742Z,98833.75
2022-09-11T23:33:56.258Z,98833.31
2022-09-11T23:36:24.765Z,98825.03
2022-09-11T23:38:52.830Z,98827.00
2022-09-11T23:41:20.873Z,98832.47
2022-09-11T23:43:49.023Z,98828.59
2022-09-11T23:46:17.482Z,98828.00
2022-09-11T23:48:45.660Z,98827.44
2022-09-11T23:51:15.580Z,98826.47
2022-09-11T23:53:47.554Z,98825.91
2022-09-11T23:56:15.614Z,98825.59
2022-09-11T23:58:44.151Z,98825.03
